sensor_id;sensor_type;location;lat;lon;timestamp;temperature;humidity
10388;DHT22;5240;51.128;4.566;2023-02-28T00:00:10;1.00;99.90
10388;DHT22;5240;51.128;4.566;2023-02-28T00:02:39;1.10;99.90
10388;DHT22;5240;51.128;4.566;2023-02-28T00:05:07;1.10;99.90
10388;DHT22;5240;51.128;4.566;2023-02-28T00:07:35;1.10;99.90
10388;DHT22;5240;51.128;4.566;2023-02-28T00:10:04;1.10;99.90
10388;DHT22;5240;51.128;4.566;2023-02-28T00:12:33;1.10;99.90
10388;DHT22;5240;51.128;4.566;2023-02-28T00:15:01;1.10;99.90
10388;DHT22;5240;51.128;4.566;2023-02-28T00:17:28;1.10;99.90
10388;DHT22;5240;51.128;4.566;2023-02-28T00:19:55;1.00;99.90
10388;DHT22;5240;51.128;4.566;2023-02-28T00:22:22;1.10;99.90
10388;DHT22;5240;51.128;4.566;2023-02-28T00:24:49;1.00;99.90
10388;DHT22;5240;51.128;4.566;2023-02-28T00:27:18;1.10;99.90
10388;DHT22;5240;51.128;4.566;2023-02-28T00:29:46;1.00;99.90
10388;DHT22;5240;51.128;4.566;2023-02-28T00:32:13;1.00;99.90
10388;DHT22;5240;51.128;4.566;2023-02-28T00:34:40;1.00;99.90
10388;DHT22;5240;51.128;4.566;2023-02-28T00:37:09;1.00;99.90
10388;DHT22;5240;51.128;4.566;2023-02-28T00:39:38;1.00;99.90
10388;DHT22;5240;51.128;4.566;2023-02-28T00:42:05;0.90;99.90
10388;DHT22;5240;51.128;4.566;2023-02-28T00:44:34;0.90;99.90
10388;DHT22;5240;51.128;4.566;2023-02-28T00:47:01;0.90;99.90
10388;DHT22;5240;51.128;4.566;2023-02-28T00:49:28;0.90;99.90
10388;DHT22;5240;51.128;4.566;2023-02-28T00:51:56;0.90;99.90
10388;DHT22;5240;51.128;4.566;2023-02-28T00:54:23;0.90;99.90
10388;DHT22;5240;51.128;4.566;2023-02-28T00:56:50;0.90;99.90
10388;DHT22;5240;51.128;4.566;2023-02-28T00:59:18;0.90;99.90
10388;DHT22;5240;51.128;4.566;2023-02-28T01:01:47;0.80;99.90
10388;DHT22;5240;51.128;4.566;2023-02-28T01:04:14;0.80;99.90
10388;DHT22;5240;51.128;4.566;2023-02-28T01:06:41;0.80;99.90
10388;DHT22;5240;51.128;4.566;2023-02-28T01:09:09;0.80;99.90
10388;DHT22;5240;51.128;4.566;2023-02-28T01:11:36;0.80;99.90
10388;DHT22;5240;51.128;4.566;2023-02-28T01:14:03;0.80;99.90
10388;DHT22;5240;51.128;4.566;2023-02-28T01:16:31;0.80;99.90
10388;DHT22;5240;51.128;4.566;2023-02-28T01:18:59;0.80;99.90
10388;DHT22;5240;51.128;4.566;2023-02-28T01:21:26;0.70;99.90
10388;DHT22;5240;51.128;4.566;2023-02-28T01:23:56;0.80;99.90
10388;DHT22;5240;51.128;4.566;2023-02-28T01:26:23;0.80;99.90
10388;DHT22;5240;51.128;4.566;2023-02-28T01:28:51;0.80;99.90
10388;DHT22;5240;51.128;4.566;2023-02-28T01:31:19;0.70;99.90
10388;DHT22;5240;51.128;4.566;2023-02-28T01:33:47;0.70;99.90
10388;DHT22;5240;51.128;4.566;2023-02-28T01:36:18;0.70;99.90
10388;DHT22;5240;51.128;4.566;2023-02-28T01:38:45;0.70;99.90
10388;DHT22;5240;51.128;4.566;2023-02-28T01:41:16;0.70;99.90
10388;DHT22;5240;51.128;4.566;2023-02-28T01:43:55;0.70;99.90
10388;DHT22;5240;51.128;4.566;2023-02-28T01:46:23;0.70;99.90
10388;DHT22;5240;51.128;4.566;2023-02-28T01:48:53;0.70;99.90
10388;DHT22;5240;51.128;4.566;2023-02-28T01:51:28;0.60;99.90
10388;DHT22;5240;51.128;4.566;2023-02-28T01:53:59;0.60;99.90
10388;DHT22;5240;51.128;4.566;2023-02-28T01:56:29;0.60;99.90
10388;DHT22;5240;51.128;4.566;2023-02-28T01:58:57;0.60;99.90
10388;DHT22;5240;51.128;4.566;2023-02-28T02:01:26;0.60;99.90
10388;DHT22;5240;51.128;4.566;2023-02-28T02:03:56;0.50;99.90
10388;DHT22;5240;51.128;4.566;2023-02-28T02:06:29;0.50;99.90
10388;DHT22;5240;51.128;4.566;2023-02-28T02:08:57;0.50;99.90
10388;DHT22;5240;51.128;4.566;2023-02-28T02:11:24;0.50;99.90
10388;DHT22;5240;51.128;4.566;2023-02-28T02:14:11;0.50;99.90
10388;DHT22;5240;51.128;4.566;2023-02-28T02:16:55;0.40;99.90
10388;DHT22;5240;51.128;4.566;2023-02-28T02:19:51;0.50;99.90
10388;DHT22;5240;51.128;4.566;2023-02-28T02:25:28;0.30;99.90
10388;DHT22;5240;51.128;4.566;2023-02-28T02:28:28;0.30;99.90
10388;DHT22;5240;51.128;4.566;2023-02-28T02:37:10;0.30;99.90
10388;DHT22;5240;51.128;4.566;2023-02-28T02:39:47;0.30;99.90
10388;DHT22;5240;51.128;4.566;2023-02-28T02:42:20;0.30;99.90
10388;DHT22;5240;51.128;4.566;2023-02-28T02:44:51;0.20;99.90
10388;DHT22;5240;51.128;4.566;2023-02-28T02:47:21;0.20;99.90
10388;DHT22;5240;51.128;4.566;2023-02-28T02:49:52;0.20;99.90
10388;DHT22;5240;51.128;4.566;2023-02-28T02:52:27;0.10;99.90
10388;DHT22;5240;51.128;4.566;2023-02-28T02:54:57;0.20;99.90
10388;DHT22;5240;51.128;4.566;2023-02-28T02:57:27;0.10;99.90
10388;DHT22;5240;51.128;4.566;2023-02-28T02:59:57;0.10;99.90
10388;DHT22;5240;51.128;4.566;2023-02-28T03:02:26;0.10;99.90
10388;DHT22;5240;51.128;4.566;2023-02-28T03:05:02;0.20;99.90
10388;DHT22;5240;51.128;4.566;2023-02-28T03:07:32;0.20;99.90
10388;DHT22;5240;51.128;4.566;2023-02-28T03:09:59;0.10;99.90
10388;DHT22;5240;51.128;4.566;2023-02-28T03:12:35;0.10;99.90
10388;DHT22;5240;51.128;4.566;2023-02-28T03:15:10;0.10;99.90
10388;DHT22;5240;51.128;4.566;2023-02-28T03:17:49;0.10;99.90
10388;DHT22;5240;51.128;4.566;2023-02-28T03:20:31;0.10;99.90
10388;DHT22;5240;51.128;4.566;2023-02-28T03:23:10;0.00;99.90
10388;DHT22;5240;51.128;4.566;2023-02-28T03:25:48;0.00;99.90
10388;DHT22;5240;51.128;4.566;2023-02-28T03:28:24;-0.10;99.90
10388;DHT22;5240;51.128;4.566;2023-02-28T03:30:57;-0.10;99.90
10388;DHT22;5240;51.128;4.566;2023-02-28T03:33:29;-0.10;99.90
10388;DHT22;5240;51.128;4.566;2023-02-28T03:35:59;-0.10;99.90
10388;DHT22;5240;51.128;4.566;2023-02-28T03:38:33;-0.10;99.90
10388;DHT22;5240;51.128;4.566;2023-02-28T03:41:06;-0.10;99.90
10388;DHT22;5240;51.128;4.566;2023-02-28T03:43:39;-0.10;99.90
10388;DHT22;5240;51.128;4.566;2023-02-28T03:46:10;-0.10;99.90
10388;DHT22;5240;51.128;4.566;2023-02-28T03:48:42;-0.10;99.90
10388;DHT22;5240;51.128;4.566;2023-02-28T03:51:14;-0.10;99.90
10388;DHT22;5240;51.128;4.566;2023-02-28T03:53:46;-0.10;99.90
10388;DHT22;5240;51.128;4.566;2023-02-28T03:56:17;-0.20;99.90
10388;DHT22;5240;51.128;4.566;2023-02-28T03:58:49;-0.10;99.90
10388;DHT22;5240;51.128;4.566;2023-02-28T04:01:21;-0.10;99.90
10388;DHT22;5240;51.128;4.566;2023-02-28T04:03:50;-0.10;99.90
10388;DHT22;5240;51.128;4.566;2023-02-28T04:06:20;-0.10;99.90
10388;DHT22;5240;51.128;4.566;2023-02-28T04:08:49;-0.20;99.90
10388;DHT22;5240;51.128;4.566;2023-02-28T04:11:21;-0.20;99.90
10388;DHT22;5240;51.128;4.566;2023-02-28T04:13:49;-0.10;99.90
10388;DHT22;5240;51.128;4.566;2023-02-28T04:16:16;-0.20;99.90
10388;DHT22;5240;51.128;4.566;2023-02-28T04:18:43;-0.20;99.90
10388;DHT22;5240;51.128;4.566;2023-02-28T04:21:12;-0.10;99.90
10388;DHT22;5240;51.128;4.566;2023-02-28T04:23:39;-0.10;99.90
10388;DHT22;5240;51.128;4.566;2023-02-28T04:26:07;-0.10;99.90
10388;DHT22;5240;51.128;4.566;2023-02-28T04:28:36;0.00;99.90
10388;DHT22;5240;51.128;4.566;2023-02-28T04:31:04;0.10;99.90
10388;DHT22;5240;51.128;4.566;2023-02-28T04:33:32;0.10;99.90
10388;DHT22;5240;51.128;4.566;2023-02-28T04:36:00;0.20;99.90
10388;DHT22;5240;51.128;4.566;2023-02-28T04:38:28;0.30;99.90
10388;DHT22;5240;51.128;4.566;2023-02-28T04:40:57;0.40;99.90
10388;DHT22;5240;51.128;4.566;2023-02-28T04:43:26;0.40;99.90
10388;DHT22;5240;51.128;4.566;2023-02-28T04:45:54;0.50;99.90
10388;DHT22;5240;51.128;4.566;2023-02-28T04:48:23;0.50;99.90
10388;DHT22;5240;51.128;4.566;2023-02-28T04:50:50;0.50;99.90
10388;DHT22;5240;51.128;4.566;2023-02-28T04:53:18;0.60;99.90
10388;DHT22;5240;51.128;4.566;2023-02-28T04:55:45;0.60;99.90
10388;DHT22;5240;51.128;4.566;2023-02-28T04:58:13;0.60;99.90
10388;DHT22;5240;51.128;4.566;2023-02-28T05:00:41;0.50;99.90
10388;DHT22;5240;51.128;4.566;2023-02-28T05:03:09;0.60;99.90
10388;DHT22;5240;51.128;4.566;2023-02-28T05:05:36;0.50;99.90
10388;DHT22;5240;51.128;4.566;2023-02-28T05:08:03;0.60;99.90
10388;DHT22;5240;51.128;4.566;2023-02-28T05:10:30;0.60;99.90
10388;DHT22;5240;51.128;4.566;2023-02-28T05:12:58;0.60;99.90
10388;DHT22;5240;51.128;4.566;2023-02-28T05:15:25;0.60;99.90
10388;DHT22;5240;51.128;4.566;2023-02-28T05:17:53;0.70;99.90
10388;DHT22;5240;51.128;4.566;2023-02-28T05:20:20;0.60;99.90
10388;DHT22;5240;51.128;4.566;2023-02-28T05:22:47;0.50;99.90
10388;DHT22;5240;51.128;4.566;2023-02-28T05:25:19;0.50;99.90
10388;DHT22;5240;51.128;4.566;2023-02-28T05:27:47;0.60;99.90
10388;DHT22;5240;51.128;4.566;2023-02-28T05:30:14;0.70;99.90
10388;DHT22;5240;51.128;4.566;2023-02-28T05:32:42;0.70;99.90
10388;DHT22;5240;51.128;4.566;2023-02-28T05:35:11;0.70;99.90
10388;DHT22;5240;51.128;4.566;2023-02-28T05:37:38;0.70;99.90
10388;DHT22;5240;51.128;4.566;2023-02-28T05:40:06;0.80;99.90
10388;DHT22;5240;51.128;4.566;2023-02-28T05:42:35;0.80;99.90
10388;DHT22;5240;51.128;4.566;2023-02-28T05:45:03;0.80;99.90
10388;DHT22;5240;51.128;4.566;2023-02-28T05:47:30;0.80;99.90
10388;DHT22;5240;51.128;4.566;2023-02-28T05:49:57;0.80;99.90
10388;DHT22;5240;51.128;4.566;2023-02-28T05:52:27;0.90;99.90
10388;DHT22;5240;51.128;4.566;2023-02-28T05:54:55;0.90;99.90
10388;DHT22;5240;51.128;4.566;2023-02-28T05:57:23;1.00;99.90
10388;DHT22;5240;51.128;4.566;2023-02-28T05:59:50;0.90;99.90
10388;DHT22;5240;51.128;4.566;2023-02-28T06:02:17;1.00;99.90
10388;DHT22;5240;51.128;4.566;2023-02-28T06:04:45;1.00;99.90
10388;DHT22;5240;51.128;4.566;2023-02-28T06:07:12;1.00;99.90
10388;DHT22;5240;51.128;4.566;2023-02-28T06:09:41;1.00;99.90
10388;DHT22;5240;51.128;4.566;2023-02-28T06:12:09;1.00;99.90
10388;DHT22;5240;51.128;4.566;2023-02-28T06:14:36;1.00;99.90
10388;DHT22;5240;51.128;4.566;2023-02-28T06:17:03;1.00;99.90
10388;DHT22;5240;51.128;4.566;2023-02-28T06:19:31;1.10;99.90
10388;DHT22;5240;51.128;4.566;2023-02-28T06:21:59;1.10;99.90
10388;DHT22;5240;51.128;4.566;2023-02-28T06:24:26;1.20;99.90
10388;DHT22;5240;51.128;4.566;2023-02-28T06:26:56;1.20;99.90
10388;DHT22;5240;51.128;4.566;2023-02-28T06:29:24;1.20;99.90
10388;DHT22;5240;51.128;4.566;2023-02-28T06:31:51;1.20;99.90
10388;DHT22;5240;51.128;4.566;2023-02-28T06:34:19;1.20;99.90
10388;DHT22;5240;51.128;4.566;2023-02-28T06:36:46;1.20;99.90
10388;DHT22;5240;51.128;4.566;2023-02-28T06:39:13;1.10;99.90
10388;DHT22;5240;51.128;4.566;2023-02-28T06:41:40;1.20;99.90
10388;DHT22;5240;51.128;4.566;2023-02-28T06:44:13;1.20;99.90
10388;DHT22;5240;51.128;4.566;2023-02-28T06:46:41;1.10;99.90
10388;DHT22;5240;51.128;4.566;2023-02-28T06:49:09;1.20;99.90
10388;DHT22;5240;51.128;4.566;2023-02-28T06:51:39;1.20;99.90
10388;DHT22;5240;51.128;4.566;2023-02-28T06:54:07;1.20;99.90
10388;DHT22;5240;51.128;4.566;2023-02-28T06:56:35;1.40;99.90
10388;DHT22;5240;51.128;4.566;2023-02-28T06:59:02;1.40;99.90
10388;DHT22;5240;51.128;4.566;2023-02-28T07:01:31;1.50;99.90
10388;DHT22;5240;51.128;4.566;2023-02-28T07:03:59;1.50;99.90
10388;DHT22;5240;51.128;4.566;2023-02-28T07:06:27;1.50;99.90
10388;DHT22;5240;51.128;4.566;2023-02-28T07:08:54;1.50;99.90
10388;DHT22;5240;51.128;4.566;2023-02-28T07:11:23;1.50;99.90
10388;DHT22;5240;51.128;4.566;2023-02-28T07:13:51;1.60;99.90
10388;DHT22;5240;51.128;4.566;2023-02-28T07:16:18;1.70;99.90
10388;DHT22;5240;51.128;4.566;2023-02-28T07:18:47;1.70;99.90
10388;DHT22;5240;51.128;4.566;2023-02-28T07:21:17;1.80;99.90
10388;DHT22;5240;51.128;4.566;2023-02-28T07:23:45;2.00;99.90
10388;DHT22;5240;51.128;4.566;2023-02-28T07:26:15;2.10;99.90
10388;DHT22;5240;51.128;4.566;2023-02-28T07:28:44;2.20;99.90
10388;DHT22;5240;51.128;4.566;2023-02-28T07:31:13;2.20;99.90
10388;DHT22;5240;51.128;4.566;2023-02-28T07:38:56;2.20;99.90
10388;DHT22;5240;51.128;4.566;2023-02-28T07:41:25;2.30;99.90
10388;DHT22;5240;51.128;4.566;2023-02-28T07:43:55;2.30;99.90
10388;DHT22;5240;51.128;4.566;2023-02-28T07:46:27;2.30;99.90
10388;DHT22;5240;51.128;4.566;2023-02-28T07:49:04;2.40;99.90
10388;DHT22;5240;51.128;4.566;2023-02-28T07:51:37;2.50;99.90
10388;DHT22;5240;51.128;4.566;2023-02-28T07:54:06;2.60;99.90
10388;DHT22;5240;51.128;4.566;2023-02-28T07:56:33;2.60;99.90
10388;DHT22;5240;51.128;4.566;2023-02-28T07:59:02;2.60;99.90
10388;DHT22;5240;51.128;4.566;2023-02-28T08:01:30;2.60;99.90
10388;DHT22;5240;51.128;4.566;2023-02-28T08:03:57;2.60;99.90
10388;DHT22;5240;51.128;4.566;2023-02-28T08:06:25;2.80;99.90
10388;DHT22;5240;51.128;4.566;2023-02-28T08:08:53;2.90;99.90
10388;DHT22;5240;51.128;4.566;2023-02-28T08:11:24;2.90;99.90
10388;DHT22;5240;51.128;4.566;2023-02-28T08:13:51;2.90;99.90
10388;DHT22;5240;51.128;4.566;2023-02-28T08:16:18;3.10;99.90
10388;DHT22;5240;51.128;4.566;2023-02-28T08:18:51;3.10;99.90
10388;DHT22;5240;51.128;4.566;2023-02-28T08:23:54;3.20;99.90
10388;DHT22;5240;51.128;4.566;2023-02-28T08:26:23;3.30;99.90
10388;DHT22;5240;51.128;4.566;2023-02-28T08:28:51;3.30;99.90
10388;DHT22;5240;51.128;4.566;2023-02-28T08:31:18;3.40;99.90
10388;DHT22;5240;51.128;4.566;2023-02-28T08:33:45;3.40;99.90
10388;DHT22;5240;51.128;4.566;2023-02-28T08:36:14;3.40;99.90
10388;DHT22;5240;51.128;4.566;2023-02-28T08:38:42;3.70;99.90
10388;DHT22;5240;51.128;4.566;2023-02-28T08:41:11;3.90;99.90
10388;DHT22;5240;51.128;4.566;2023-02-28T08:43:40;4.20;99.90
10388;DHT22;5240;51.128;4.566;2023-02-28T08:46:11;4.40;99.90
10388;DHT22;5240;51.128;4.566;2023-02-28T08:48:39;4.80;99.90
10388;DHT22;5240;51.128;4.566;2023-02-28T08:51:09;5.30;99.90
10388;DHT22;5240;51.128;4.566;2023-02-28T08:53:37;6.10;99.90
10388;DHT22;5240;51.128;4.566;2023-02-28T08:56:06;6.80;99.90
10388;DHT22;5240;51.128;4.566;2023-02-28T08:58:34;7.10;99.90
10388;DHT22;5240;51.128;4.566;2023-02-28T09:01:08;7.10;99.90
10388;DHT22;5240;51.128;4.566;2023-02-28T09:03:36;7.00;99.90
10388;DHT22;5240;51.128;4.566;2023-02-28T09:06:08;7.00;99.90
10388;DHT22;5240;51.128;4.566;2023-02-28T09:08:35;7.10;99.90
10388;DHT22;5240;51.128;4.566;2023-02-28T09:11:06;7.70;99.90
10388;DHT22;5240;51.128;4.566;2023-02-28T09:16:13;7.80;99.90
10388;DHT22;5240;51.128;4.566;2023-02-28T09:18:49;8.20;99.90
10388;DHT22;5240;51.128;4.566;2023-02-28T09:21:31;8.10;99.90
10388;DHT22;5240;51.128;4.566;2023-02-28T09:24:03;8.20;99.90
10388;DHT22;5240;51.128;4.566;2023-02-28T09:26:31;8.00;99.90
10388;DHT22;5240;51.128;4.566;2023-02-28T09:31:54;7.90;99.90
10388;DHT22;5240;51.128;4.566;2023-02-28T09:34:25;7.80;99.90
10388;DHT22;5240;51.128;4.566;2023-02-28T09:36:53;7.70;99.90
10388;DHT22;5240;51.128;4.566;2023-02-28T09:39:21;8.30;99.90
10388;DHT22;5240;51.128;4.566;2023-02-28T09:41:51;8.50;99.90
10388;DHT22;5240;51.128;4.566;2023-02-28T09:44:27;8.80;99.90
10388;DHT22;5240;51.128;4.566;2023-02-28T09:47:00;9.00;99.90
10388;DHT22;5240;51.128;4.566;2023-02-28T09:49:35;8.90;99.90
10388;DHT22;5240;51.128;4.566;2023-02-28T09:52:07;8.60;99.90
10388;DHT22;5240;51.128;4.566;2023-02-28T09:54:36;9.00;99.90
10388;DHT22;5240;51.128;4.566;2023-02-28T09:57:08;9.20;99.90
10388;DHT22;5240;51.128;4.566;2023-02-28T09:59:46;8.70;99.90
10388;DHT22;5240;51.128;4.566;2023-02-28T10:02:40;8.10;99.90
10388;DHT22;5240;51.128;4.566;2023-02-28T10:05:13;8.10;99.90
10388;DHT22;5240;51.128;4.566;2023-02-28T10:07:51;8.00;99.90
10388;DHT22;5240;51.128;4.566;2023-02-28T10:10:26;8.20;99.90
10388;DHT22;5240;51.128;4.566;2023-02-28T10:12:57;8.50;99.90
10388;DHT22;5240;51.128;4.566;2023-02-28T10:15:29;8.60;99.90
10388;DHT22;5240;51.128;4.566;2023-02-28T10:25:44;8.80;99.90
10388;DHT22;5240;51.128;4.566;2023-02-28T10:28:15;9.30;99.90
10388;DHT22;5240;51.128;4.566;2023-02-28T10:30:46;9.70;99.90
10388;DHT22;5240;51.128;4.566;2023-02-28T10:33:33;9.80;99.90
10388;DHT22;5240;51.128;4.566;2023-02-28T10:36:02;10.20;99.90
10388;DHT22;5240;51.128;4.566;2023-02-28T10:38:33;9.40;99.90
10388;DHT22;5240;51.128;4.566;2023-02-28T10:41:06;9.60;99.90
10388;DHT22;5240;51.128;4.566;2023-02-28T10:43:34;9.90;99.90
10388;DHT22;5240;51.128;4.566;2023-02-28T10:46:04;9.90;99.90
10388;DHT22;5240;51.128;4.566;2023-02-28T10:48:37;9.50;99.90
10388;DHT22;5240;51.128;4.566;2023-02-28T10:51:08;8.80;99.90
10388;DHT22;5240;51.128;4.566;2023-02-28T10:53:45;8.30;99.90
10388;DHT22;5240;51.128;4.566;2023-02-28T10:56:17;7.50;99.90
10388;DHT22;5240;51.128;4.566;2023-02-28T10:58:54;7.00;99.90
10388;DHT22;5240;51.128;4.566;2023-02-28T11:01:24;6.60;99.90
10388;DHT22;5240;51.128;4.566;2023-02-28T11:03:52;6.20;99.90
10388;DHT22;5240;51.128;4.566;2023-02-28T11:06:21;6.00;99.90
10388;DHT22;5240;51.128;4.566;2023-02-28T11:16:39;5.30;99.90
10388;DHT22;5240;51.128;4.566;2023-02-28T11:19:17;5.40;99.90
10388;DHT22;5240;51.128;4.566;2023-02-28T11:21:52;5.50;99.90
10388;DHT22;5240;51.128;4.566;2023-02-28T11:24:23;5.50;99.90
10388;DHT22;5240;51.128;4.566;2023-02-28T11:26:51;5.50;99.90
10388;DHT22;5240;51.128;4.566;2023-02-28T11:29:22;5.30;99.90
10388;DHT22;5240;51.128;4.566;2023-02-28T11:32:16;5.30;99.90
10388;DHT22;5240;51.128;4.566;2023-02-28T11:34:45;5.50;99.90
10388;DHT22;5240;51.128;4.566;2023-02-28T11:37:14;5.50;99.90
10388;DHT22;5240;51.128;4.566;2023-02-28T11:39:43;5.30;99.90
10388;DHT22;5240;51.128;4.566;2023-02-28T11:45:18;5.20;99.90
10388;DHT22;5240;51.128;4.566;2023-02-28T11:47:53;5.30;99.90
10388;DHT22;5240;51.128;4.566;2023-02-28T11:50:47;5.30;99.90
10388;DHT22;5240;51.128;4.566;2023-02-28T11:53:22;5.30;99.90
10388;DHT22;5240;51.128;4.566;2023-02-28T11:55:58;5.40;99.90
10388;DHT22;5240;51.128;4.566;2023-02-28T12:01:15;5.50;99.90
10388;DHT22;5240;51.128;4.566;2023-02-28T12:03:57;5.50;99.90
10388;DHT22;5240;51.128;4.566;2023-02-28T12:06:29;5.50;99.90
10388;DHT22;5240;51.128;4.566;2023-02-28T12:09:27;5.40;99.90
10388;DHT22;5240;51.128;4.566;2023-02-28T12:12:01;5.20;99.90
10388;DHT22;5240;51.128;4.566;2023-02-28T12:14:56;5.30;99.90
10388;DHT22;5240;51.128;4.566;2023-02-28T12:17:39;5.30;99.90
10388;DHT22;5240;51.128;4.566;2023-02-28T12:20:17;5.10;99.90
10388;DHT22;5240;51.128;4.566;2023-02-28T12:22:51;5.10;99.90
10388;DHT22;5240;51.128;4.566;2023-02-28T12:25:41;5.20;99.90
10388;DHT22;5240;51.128;4.566;2023-02-28T12:28:23;5.20;99.90
10388;DHT22;5240;51.128;4.566;2023-02-28T12:31:16;5.30;99.90
10388;DHT22;5240;51.128;4.566;2023-02-28T12:33:47;5.40;99.90
10388;DHT22;5240;51.128;4.566;2023-02-28T12:36:19;5.50;99.90
10388;DHT22;5240;51.128;4.566;2023-02-28T12:38:50;5.60;99.90
10388;DHT22;5240;51.128;4.566;2023-02-28T12:41:24;5.70;99.90
10388;DHT22;5240;51.128;4.566;2023-02-28T12:44:01;5.80;99.90
10388;DHT22;5240;51.128;4.566;2023-02-28T12:46:32;5.90;99.90
10388;DHT22;5240;51.128;4.566;2023-02-28T12:49:05;6.00;99.90
10388;DHT22;5240;51.128;4.566;2023-02-28T12:51:35;6.00;99.90
10388;DHT22;5240;51.128;4.566;2023-02-28T12:54:10;6.00;99.90
10388;DHT22;5240;51.128;4.566;2023-02-28T12:56:45;5.90;99.90
10388;DHT22;5240;51.128;4.566;2023-02-28T12:59:21;5.70;99.90
10388;DHT22;5240;51.128;4.566;2023-02-28T13:05:07;5.60;99.90
10388;DHT22;5240;51.128;4.566;2023-02-28T13:10:48;5.60;99.90
10388;DHT22;5240;51.128;4.566;2023-02-28T13:13:21;5.70;99.90
10388;DHT22;5240;51.128;4.566;2023-02-28T13:16:05;5.70;99.90
10388;DHT22;5240;51.128;4.566;2023-02-28T13:18:37;5.60;99.90
10388;DHT22;5240;51.128;4.566;2023-02-28T13:21:21;5.70;99.90
10388;DHT22;5240;51.128;4.566;2023-02-28T13:24:02;5.70;99.90
10388;DHT22;5240;51.128;4.566;2023-02-28T13:27:20;5.60;99.90
10388;DHT22;5240;51.128;4.566;2023-02-28T13:29:51;5.50;99.90
10388;DHT22;5240;51.128;4.566;2023-02-28T13:32:34;5.50;99.90
10388;DHT22;5240;51.128;4.566;2023-02-28T13:40:39;5.60;99.90
10388;DHT22;5240;51.128;4.566;2023-02-28T13:46:13;5.70;99.90
10388;DHT22;5240;51.128;4.566;2023-02-28T13:48:41;5.60;99.90
10388;DHT22;5240;51.128;4.566;2023-02-28T13:51:43;5.50;99.90
10388;DHT22;5240;51.128;4.566;2023-02-28T13:57:13;5.60;99.90
10388;DHT22;5240;51.128;4.566;2023-02-28T13:59:49;5.70;99.90
10388;DHT22;5240;51.128;4.566;2023-02-28T14:02:37;5.70;99.90
10388;DHT22;5240;51.128;4.566;2023-02-28T14:05:22;5.70;99.90
10388;DHT22;5240;51.128;4.566;2023-02-28T14:07:56;5.60;99.90
10388;DHT22;5240;51.128;4.566;2023-02-28T14:10:30;5.50;99.90
10388;DHT22;5240;51.128;4.566;2023-02-28T14:13:01;5.50;99.90
10388;DHT22;5240;51.128;4.566;2023-02-28T14:15:54;5.60;99.90
10388;DHT22;5240;51.128;4.566;2023-02-28T14:21:27;5.50;99.90
10388;DHT22;5240;51.128;4.566;2023-02-28T14:27:31;5.50;99.90
10388;DHT22;5240;51.128;4.566;2023-02-28T14:40:52;5.60;99.90
10388;DHT22;5240;51.128;4.566;2023-02-28T14:56:39;5.60;99.90
10388;DHT22;5240;51.128;4.566;2023-02-28T14:59:24;5.50;99.90
10388;DHT22;5240;51.128;4.566;2023-02-28T15:02:17;5.50;99.90
10388;DHT22;5240;51.128;4.566;2023-02-28T15:04:53;5.50;99.90
10388;DHT22;5240;51.128;4.566;2023-02-28T15:07:21;5.50;99.90
10388;DHT22;5240;51.128;4.566;2023-02-28T15:10:14;5.50;99.90
10388;DHT22;5240;51.128;4.566;2023-02-28T15:12:49;5.50;99.90
10388;DHT22;5240;51.128;4.566;2023-02-28T15:15:19;5.50;99.90
10388;DHT22;5240;51.128;4.566;2023-02-28T15:17:50;5.50;99.90
10388;DHT22;5240;51.128;4.566;2023-02-28T15:20:19;5.50;99.90
10388;DHT22;5240;51.128;4.566;2023-02-28T15:22:47;5.40;99.90
10388;DHT22;5240;51.128;4.566;2023-02-28T15:25:20;5.40;99.90
10388;DHT22;5240;51.128;4.566;2023-02-28T15:27:50;5.40;99.90
10388;DHT22;5240;51.128;4.566;2023-02-28T15:30:21;5.40;99.90
10388;DHT22;5240;51.128;4.566;2023-02-28T15:33:04;5.40;99.90
10388;DHT22;5240;51.128;4.566;2023-02-28T15:35:37;5.30;99.90
10388;DHT22;5240;51.128;4.566;2023-02-28T15:38:15;5.40;99.90
10388;DHT22;5240;51.128;4.566;2023-02-28T15:40:51;5.50;99.90
10388;DHT22;5240;51.128;4.566;2023-02-28T15:43:29;5.40;99.90
10388;DHT22;5240;51.128;4.566;2023-02-28T15:45:58;5.50;99.90
10388;DHT22;5240;51.128;4.566;2023-02-28T15:48:36;5.50;99.90
10388;DHT22;5240;51.128;4.566;2023-02-28T15:51:08;5.50;99.90
10388;DHT22;5240;51.128;4.566;2023-02-28T15:53:37;5.50;99.90
10388;DHT22;5240;51.128;4.566;2023-02-28T15:56:17;5.50;99.90
10388;DHT22;5240;51.128;4.566;2023-02-28T15:58:50;5.50;99.90
10388;DHT22;5240;51.128;4.566;2023-02-28T16:01:24;5.40;99.90
10388;DHT22;5240;51.128;4.566;2023-02-28T16:03:56;5.40;99.90
10388;DHT22;5240;51.128;4.566;2023-02-28T16:07:00;5.40;99.90
10388;DHT22;5240;51.128;4.566;2023-02-28T16:09:27;5.40;99.90
10388;DHT22;5240;51.128;4.566;2023-02-28T16:11:59;5.30;99.90
10388;DHT22;5240;51.128;4.566;2023-02-28T16:14:29;5.20;99.90
10388;DHT22;5240;51.128;4.566;2023-02-28T16:17:02;5.20;99.90
10388;DHT22;5240;51.128;4.566;2023-02-28T16:19:30;5.20;99.90
10388;DHT22;5240;51.128;4.566;2023-02-28T16:21:57;5.20;99.90
10388;DHT22;5240;51.128;4.566;2023-02-28T16:24:24;5.20;99.90
10388;DHT22;5240;51.128;4.566;2023-02-28T16:26:53;5.20;99.90
10388;DHT22;5240;51.128;4.566;2023-02-28T16:29:25;5.20;99.90
10388;DHT22;5240;51.128;4.566;2023-02-28T16:31:55;5.30;99.90
10388;DHT22;5240;51.128;4.566;2023-02-28T16:34:22;5.30;99.90
10388;DHT22;5240;51.128;4.566;2023-02-28T16:36:50;5.20;99.90
10388;DHT22;5240;51.128;4.566;2023-02-28T16:39:17;5.20;99.90
10388;DHT22;5240;51.128;4.566;2023-02-28T16:41:47;5.10;99.90
10388;DHT22;5240;51.128;4.566;2023-02-28T16:44:24;5.00;99.90
10388;DHT22;5240;51.128;4.566;2023-02-28T16:46:54;5.00;99.90
10388;DHT22;5240;51.128;4.566;2023-02-28T16:49:22;5.00;99.90
10388;DHT22;5240;51.128;4.566;2023-02-28T16:51:49;4.90;99.90
10388;DHT22;5240;51.128;4.566;2023-02-28T16:54:16;4.90;99.90
10388;DHT22;5240;51.128;4.566;2023-02-28T16:56:45;4.80;99.90
10388;DHT22;5240;51.128;4.566;2023-02-28T16:59:13;4.80;99.90
10388;DHT22;5240;51.128;4.566;2023-02-28T17:01:47;4.80;99.90
10388;DHT22;5240;51.128;4.566;2023-02-28T17:04:17;4.80;99.90
10388;DHT22;5240;51.128;4.566;2023-02-28T17:06:45;4.70;99.90
10388;DHT22;5240;51.128;4.566;2023-02-28T17:09:16;4.70;99.90
10388;DHT22;5240;51.128;4.566;2023-02-28T17:11:44;4.70;99.90
10388;DHT22;5240;51.128;4.566;2023-02-28T17:14:11;4.60;99.90
10388;DHT22;5240;51.128;4.566;2023-02-28T17:16:38;4.60;99.90
10388;DHT22;5240;51.128;4.566;2023-02-28T17:19:11;4.50;99.90
10388;DHT22;5240;51.128;4.566;2023-02-28T17:21:41;4.50;99.90
10388;DHT22;5240;51.128;4.566;2023-02-28T17:24:09;4.40;99.90
10388;DHT22;5240;51.128;4.566;2023-02-28T17:26:38;4.50;99.90
10388;DHT22;5240;51.128;4.566;2023-02-28T17:29:11;4.40;99.90
10388;DHT22;5240;51.128;4.566;2023-02-28T17:31:39;4.40;99.90
10388;DHT22;5240;51.128;4.566;2023-02-28T17:34:06;4.40;99.90
10388;DHT22;5240;51.128;4.566;2023-02-28T17:36:34;4.30;99.90
10388;DHT22;5240;51.128;4.566;2023-02-28T17:39:04;4.20;99.90
10388;DHT22;5240;51.128;4.566;2023-02-28T17:41:35;4.20;99.90
10388;DHT22;5240;51.128;4.566;2023-02-28T17:44:02;4.20;99.90
10388;DHT22;5240;51.128;4.566;2023-02-28T17:46:30;4.10;99.90
10388;DHT22;5240;51.128;4.566;2023-02-28T17:48:57;4.10;99.90
10388;DHT22;5240;51.128;4.566;2023-02-28T17:51:25;4.10;99.90
10388;DHT22;5240;51.128;4.566;2023-02-28T17:53:52;4.10;99.90
10388;DHT22;5240;51.128;4.566;2023-02-28T17:56:22;4.00;99.90
10388;DHT22;5240;51.128;4.566;2023-02-28T17:58:51;4.00;99.90